Time;durP1;ratioP1;P1;durP2;ratioP2;P2;SDS_P1;SDS_P2;PMS_P1;PMS_P2;Temp;Humidity;BMP_temperature;BMP_pressure;BME280_temperature;BME280_humidity;BME280_pressure;Samples;Min_cycle;Max_cycle;Signal;HPM_P1;HPM_P2
2022/04/13 00:01:08;;;;;;;25.10;15.13;;;12.00;51.90;;;;;;5054446;28;20025;-80
2022/04/13 00:03:34;;;;;;;24.10;15.05;;;11.90;53.10;;;;;;5073300;28;20036;-80
2022/04/13 00:05:59;;;;;;;23.45;14.07;;;12.00;52.30;;;;;;5072322;28;20548;-80
2022/04/13 00:08:26;;;;;;;20.50;13.23;;;12.20;51.80;;;;;;5073200;28;20020;-80
2022/04/13 00:10:52;;;;;;;23.85;13.80;;;12.30;51.10;;;;;;5054940;28;20021;-79
2022/04/13 00:13:18;;;;;;;23.02;13.88;;;12.30;51.00;;;;;;5055024;28;20051;-79
2022/04/13 00:15:43;;;;;;;19.50;12.60;;;12.10;50.90;;;;;;5054910;28;20379;-78
2022/04/13 00:18:10;;;;;;;21.90;13.27;;;12.10;52.00;;;;;;5073191;28;20039;-79
2022/04/13 00:20:36;;;;;;;20.65;13.15;;;12.20;51.30;;;;;;5055220;28;20029;-82
2022/04/13 00:23:03;;;;;;;20.83;13.27;;;12.30;51.00;;;;;;5073129;28;20544;-83
2022/04/13 00:25:29;;;;;;;21.17;13.32;;;12.20;50.70;;;;;;5054853;28;20028;-79
2022/04/13 00:27:56;;;;;;;25.80;13.82;;;12.00;51.40;;;;;;5073237;28;20032;-78
2022/04/13 00:30:21;;;;;;;20.67;13.38;;;11.90;51.10;;;;;;5072525;28;20096;-80
2022/04/13 00:32:47;;;;;;;21.13;13.32;;;11.90;51.40;;;;;;5054719;28;20139;-79
2022/04/13 00:35:13;;;;;;;22.40;13.02;;;12.00;51.60;;;;;;5054243;28;20029;-78
2022/04/13 00:37:39;;;;;;;22.50;14.20;;;11.90;51.00;;;;;;5072627;28;20529;-81
2022/04/13 00:40:06;;;;;;;27.73;16.27;;;11.70;51.30;;;;;;5054649;28;20047;-83
2022/04/13 00:42:32;;;;;;;26.48;16.25;;;11.70;51.40;;;;;;5054900;28;20398;-85
2022/04/13 00:44:58;;;;;;;29.52;17.73;;;11.80;51.50;;;;;;5054607;28;20027;-82
2022/04/13 00:47:24;;;;;;;24.88;15.85;;;11.60;51.40;;;;;;5054668;28;20039;-81
2022/04/13 00:49:50;;;;;;;25.77;16.33;;;11.40;51.40;;;;;;5054395;28;20116;-79
2022/04/13 00:52:19;;;;;;;24.58;14.65;;;11.20;51.90;;;;;;5072402;28;20100;-81
2022/04/13 00:54:48;;;;;;;23.63;14.23;;;11.30;52.30;;;;;;5057037;28;20082;-82
2022/04/13 00:57:17;;;;;;;24.85;14.32;;;11.40;52.40;;;;;;5058775;28;20032;-83
2022/04/13 00:59:45;;;;;;;20.45;12.60;;;11.60;51.90;;;;;;5076518;28;20032;-81
2022/04/13 01:02:12;;;;;;;21.50;13.82;;;11.60;51.20;;;;;;5057708;28;20024;-84
2022/04/13 01:04:38;;;;;;;20.27;12.98;;;11.50;51.10;;;;;;5076321;28;20033;-80
2022/04/13 01:07:09;;;;;;;20.35;12.43;;;11.40;51.30;;;;;;5076316;28;20029;-79
2022/04/13 01:09:35;;;;;;;;;;;11.50;51.20;;;;;;5058587;28;20029;-80
2022/04/13 01:12:01;;;;;;;23.20;12.90;;;11.40;51.20;;;;;;5058618;28;19965;-80
2022/04/13 01:14:26;;;;;;;20.35;11.38;;;11.30;51.20;;;;;;5057833;28;20037;-83
2022/04/13 01:16:52;;;;;;;21.80;12.02;;;11.10;51.60;;;;;;5057900;28;20107;-83
2022/04/13 01:19:18;;;;;;;19.65;12.13;;;11.00;51.80;;;;;;5075998;28;20056;-82
2022/04/13 01:21:48;;;;;;;19.70;12.15;;;11.00;52.10;;;;;;5076360;28;20040;-83
2022/04/13 01:24:15;;;;;;;17.70;11.65;;;10.90;52.10;;;;;;5057990;28;20055;-82
2022/04/13 01:26:41;;;;;;;17.92;11.52;;;10.80;52.40;;;;;;5055013;28;20120;-85
2022/04/13 01:29:07;;;;;;;19.10;12.10;;;10.80;52.30;;;;;;5057271;28;20115;-84
2022/04/13 01:31:33;;;;;;;20.17;12.32;;;10.70;52.90;;;;;;5057553;28;20247;-84
2022/04/13 01:33:59;;;;;;;19.88;12.70;;;10.80;53.30;;;;;;5075867;28;20515;-82
2022/04/13 01:36:28;;;;;;;20.88;13.07;;;10.90;53.50;;;;;;5057838;28;20028;-82
2022/04/13 01:38:54;;;;;;;17.73;12.15;;;10.80;53.70;;;;;;5058091;28;20016;-81
2022/04/13 01:41:19;;;;;;;20.33;13.00;;;10.90;53.40;;;;;;5057501;28;20392;-83
2022/04/13 01:43:45;;;;;;;23.65;13.32;;;10.90;53.40;;;;;;5075644;28;20032;-88
2022/04/13 01:46:11;;;;;;;20.23;12.15;;;11.10;53.80;;;;;;5058021;28;20036;-88
2022/04/13 01:48:37;;;;;;;19.05;11.98;;;11.00;53.00;;;;;;5075983;28;20029;-84
2022/04/13 01:51:03;;;;;;;21.50;12.48;;;10.90;52.90;;;;;;5075611;28;20471;-86
2022/04/13 01:53:28;;;;;;;18.88;12.30;;;10.70;52.80;;;;;;5075281;28;20090;-83
2022/04/13 01:55:54;;;;;;;22.17;12.25;;;10.80;53.70;;;;;;5056700;28;20017;-82
2022/04/13 01:58:21;;;;;;;19.73;12.38;;;10.70;53.60;;;;;;5074883;28;20069;-82
2022/04/13 02:00:47;;;;;;;19.92;11.98;;;10.90;53.40;;;;;;5057747;28;20028;-85
2022/04/13 02:03:18;;;;;;;21.65;11.95;;;10.90;53.30;;;;;;5074257;28;20020;-85
2022/04/13 02:05:43;;;;;;;;;;;10.90;53.10;;;;;;5056754;28;20078;-85
2022/04/13 02:08:09;;;;;;;22.25;12.88;;;11.10;53.00;;;;;;5058021;28;19905;-87
2022/04/13 02:10:35;;;;;;;20.38;12.30;;;11.00;53.00;;;;;;5055595;28;20035;-86
2022/04/13 02:13:00;;;;;;;22.10;13.25;;;10.90;53.00;;;;;;5057220;28;20040;-87
2022/04/13 02:15:26;;;;;;;21.13;12.93;;;10.80;53.20;;;;;;5074798;28;20490;-83
2022/04/13 02:17:52;;;;;;;22.38;13.65;;;10.80;53.90;;;;;;5057328;28;20031;-85
2022/04/13 02:20:17;;;;;;;21.25;12.88;;;10.70;54.40;;;;;;5056755;28;20032;-85
2022/04/13 02:22:46;;;;;;;20.80;12.98;;;10.70;53.80;;;;;;5057035;28;20059;-82
2022/04/13 02:25:12;;;;;;;22.45;12.68;;;10.80;54.00;;;;;;5057290;28;20025;-81
2022/04/13 02:27:38;;;;;;;21.20;12.82;;;10.80;54.00;;;;;;5074006;28;20410;-83
2022/04/13 02:30:04;;;;;;;21.00;12.60;;;10.60;53.70;;;;;;5074463;28;20025;-82
2022/04/13 02:32:30;;;;;;;18.88;12.30;;;10.60;54.20;;;;;;5074737;28;20045;-84
2022/04/13 02:34:56;;;;;;;19.75;12.15;;;10.60;54.30;;;;;;5074373;28;20039;-82
2022/04/13 02:37:21;;;;;;;20.00;12.43;;;10.50;54.20;;;;;;5074272;28;20020;-82
2022/04/13 02:39:48;;;;;;;20.05;11.80;;;10.30;54.20;;;;;;5074696;28;20029;-84
2022/04/13 02:42:15;;;;;;;18.30;11.68;;;10.30;54.00;;;;;;5074879;28;20032;-81
2022/04/13 02:44:44;;;;;;;18.27;11.15;;;10.20;54.00;;;;;;5056337;28;20091;-80
2022/04/13 02:47:10;;;;;;;20.10;12.30;;;9.90;54.10;;;;;;5057156;28;20021;-84
2022/04/13 02:49:36;;;;;;;21.35;11.93;;;9.60;54.40;;;;;;5056081;28;20024;-81
2022/04/13 02:52:03;;;;;;;18.20;11.93;;;9.40;55.20;;;;;;5074709;28;20032;-79
2022/04/13 02:54:29;;;;;;;17.13;10.75;;;9.60;55.60;;;;;;5074326;28;20119;-82
2022/04/13 02:56:55;;;;;;;17.65;10.30;;;9.90;55.10;;;;;;5056857;28;20103;-84
2022/04/13 02:59:21;;;;;;;16.42;11.05;;;10.30;54.60;;;;;;5056224;28;20021;-85
2022/04/13 03:01:47;;;;;;;16.23;10.60;;;10.40;54.00;;;;;;5056392;28;20032;-86
2022/04/13 03:04:13;;;;;;;22.15;12.30;;;10.50;53.60;;;;;;5056004;28;20348;-83
2022/04/13 03:06:39;;;;;;;16.60;9.80;;;10.60;53.40;;;;;;5056740;28;20028;-81
2022/04/13 03:09:05;;;;;;;20.00;10.80;;;10.50;53.30;;;;;;5056742;28;20495;-86
2022/04/13 03:11:31;;;;;;;17.75;11.45;;;10.40;53.30;;;;;;5056522;28;20024;-80
2022/04/13 03:13:57;;;;;;;17.85;10.93;;;10.50;53.20;;;;;;5056407;28;20036;-79
2022/04/13 03:16:23;;;;;;;15.60;10.57;;;10.50;53.50;;;;;;5072836;28;20032;-79
2022/04/13 03:18:48;;;;;;;17.17;10.52;;;10.50;53.50;;;;;;5055940;28;20032;-81
2022/04/13 03:21:14;;;;;;;18.52;10.32;;;10.10;53.30;;;;;;5055554;28;20020;-80
2022/04/13 03:23:40;;;;;;;15.68;10.13;;;10.10;53.10;;;;;;5055370;28;20039;-84
2022/04/13 03:26:06;;;;;;;16.77;10.88;;;10.00;53.40;;;;;;5055284;28;20021;-82
2022/04/13 03:28:32;;;;;;;17.70;10.13;;;10.10;53.20;;;;;;5055190;28;20033;-83
2022/04/13 03:30:58;;;;;;;16.38;9.90;;;10.00;53.20;;;;;;5055606;28;20027;-84
2022/04/13 03:33:23;;;;;;;17.17;10.35;;;9.70;53.50;;;;;;5055692;28;20044;-85
2022/04/13 03:35:49;;;;;;;15.40;9.55;;;9.50;53.80;;;;;;5073588;28;20364;-81
2022/04/13 03:38:15;;;;;;;19.38;10.23;;;9.40;54.00;;;;;;5055642;28;20032;-84
2022/04/13 03:40:40;;;;;;;13.80;8.68;;;9.40;54.10;;;;;;5054676;28;20107;-80
2022/04/13 03:43:07;;;;;;;15.00;9.63;;;9.50;54.30;;;;;;5058913;28;20060;-84
2022/04/13 03:45:32;;;;;;;18.58;9.68;;;9.40;54.40;;;;;;5053483;28;20422;-81
2022/04/13 03:47:58;;;;;;;13.25;8.70;;;9.30;54.50;;;;;;5055317;28;20520;-85
2022/04/13 03:50:24;;;;;;;16.38;8.60;;;9.30;54.20;;;;;;5074101;28;20016;-86
2022/04/13 03:52:49;;;;;;;15.25;8.93;;;9.20;55.00;;;;;;5073623;28;20040;-85
2022/04/13 03:55:16;;;;;;;16.38;9.32;;;9.00;55.50;;;;;;5073940;28;20482;-81
2022/04/13 03:57:42;;;;;;;15.60;8.43;;;8.90;55.30;;;;;;5055336;28;20035;-83
2022/04/13 04:00:09;;;;;;;13.82;8.60;;;8.80;55.70;;;;;;5045971;28;20025;-84
2022/04/13 04:02:38;;;;;;;14.85;8.55;;;8.70;56.40;;;;;;5053203;28;20099;-83
2022/04/13 04:05:05;;;;;;;16.95;9.10;;;8.60;56.80;;;;;;5035493;28;20025;-81
2022/04/13 04:07:31;;;;;;;12.35;7.85;;;8.40;57.60;;;;;;5035443;28;20083;-82
2022/04/13 04:09:56;;;;;;;13.18;7.75;;;8.40;57.00;;;;;;5053201;28;20028;-81
2022/04/13 04:12:22;;;;;;;16.13;8.88;;;8.40;57.40;;;;;;5056378;28;20025;-81
2022/04/13 04:14:48;;;;;;;13.15;8.48;;;8.40;58.10;;;;;;5055107;28;20040;-81
2022/04/13 04:17:13;;;;;;;14.77;8.30;;;8.40;58.00;;;;;;5072453;28;20383;-86
2022/04/13 04:19:39;;;;;;;16.77;9.40;;;8.50;57.90;;;;;;5072920;28;20108;-82
2022/04/13 04:22:04;;;;;;;13.98;8.52;;;8.90;57.80;;;;;;5073054;28;20471;-82
2022/04/13 04:24:30;;;;;;;12.25;7.63;;;9.30;56.60;;;;;;5055045;28;20037;-81
2022/04/13 04:26:57;;;;;;;13.40;8.77;;;9.50;55.90;;;;;;5072297;28;20032;-84
2022/04/13 04:29:24;;;;;;;13.55;8.35;;;9.80;55.10;;;;;;5057064;28;20039;-84
2022/04/13 04:31:49;;;;;;;13.30;8.75;;;9.90;54.80;;;;;;5058952;28;20044;-84
2022/04/13 04:34:16;;;;;;;18.52;9.95;;;9.90;54.40;;;;;;5057945;28;20033;-83
2022/04/13 04:36:42;;;;;;;13.77;8.52;;;9.80;55.10;;;;;;5077259;28;20028;-83
2022/04/13 04:39:07;;;;;;;15.90;8.65;;;9.80;54.60;;;;;;5058379;28;20021;-82
2022/04/13 04:41:34;;;;;;;18.30;8.63;;;10.10;54.40;;;;;;5058690;28;20016;-81
2022/04/13 04:44:00;;;;;;;13.27;8.70;;;10.10;54.20;;;;;;5076706;28;20115;-83
2022/04/13 04:46:26;;;;;;;13.48;8.70;;;10.20;54.10;;;;;;5075788;28;20039;-80
2022/04/13 04:48:52;;;;;;;13.68;8.23;;;10.30;53.90;;;;;;5075376;28;20478;-80
2022/04/13 04:51:18;;;;;;;15.25;9.20;;;10.40;54.10;;;;;;5076248;28;20082;-79
2022/04/13 04:53:44;;;;;;;12.52;7.97;;;10.70;53.80;;;;;;5058326;28;20036;-79
2022/04/13 04:56:10;;;;;;;14.35;8.00;;;10.70;53.50;;;;;;5077010;28;20474;-83
2022/04/13 04:58:36;;;;;;;13.73;8.35;;;10.60;53.90;;;;;;5058006;28;20352;-80
2022/04/13 05:01:01;;;;;;;13.95;8.70;;;10.60;54.00;;;;;;5058262;28;20448;-85
2022/04/13 05:03:27;;;;;;;15.13;8.82;;;10.80;53.70;;;;;;5076432;28;20025;-80
2022/04/13 05:05:53;;;;;;;13.38;8.20;;;11.00;53.60;;;;;;5076845;28;20032;-81
2022/04/13 05:08:18;;;;;;;14.05;8.35;;;11.30;52.80;;;;;;5058586;28;20025;-79
2022/04/13 05:10:50;;;;;;;12.80;7.63;;;11.50;52.30;;;;;;5076338;28;20021;-79
2022/04/13 05:13:17;;;;;;;12.43;7.75;;;11.70;52.10;;;;;;5058480;28;20040;-80
2022/04/13 05:15:43;;;;;;;25.67;8.68;;;11.90;51.80;;;;;;5076149;28;20032;-80
2022/04/13 05:18:09;;;;;;;11.25;7.38;;;12.10;50.90;;;;;;5058452;28;20024;-83
2022/04/13 05:20:34;;;;;;;12.13;7.05;;;12.30;50.30;;;;;;5058474;28;20070;-80
2022/04/13 05:23:00;;;;;;;11.85;6.70;;;12.20;49.90;;;;;;5058329;28;20391;-80
2022/04/13 05:25:25;;;;;;;10.63;6.75;;;12.20;50.00;;;;;;5058448;28;20029;-80
2022/04/13 05:27:51;;;;;;;12.15;7.60;;;12.10;50.20;;;;;;5076176;28;20020;-80
2022/04/13 05:30:17;;;;;;;13.23;7.50;;;12.00;51.10;;;;;;5058538;28;20030;-81
2022/04/13 05:32:51;;;;;;;14.38;7.93;;;12.00;51.00;;;;;;5054147;28;20572;-81
2022/04/13 05:35:17;;;;;;;13.35;7.70;;;12.10;51.20;;;;;;5054476;28;20025;-79
2022/04/13 05:37:43;;;;;;;13.43;8.10;;;12.30;51.50;;;;;;5055738;28;20021;-80
2022/04/13 05:40:10;;;;;;;12.65;8.05;;;12.30;52.20;;;;;;5054990;28;20029;-80
2022/04/13 05:42:35;;;;;;;16.10;8.18;;;12.50;52.60;;;;;;5055513;28;20056;-81
2022/04/13 05:45:01;;;;;;;11.27;8.10;;;12.60;52.00;;;;;;5055272;28;20057;-79
2022/04/13 05:47:27;;;;;;;14.40;8.27;;;12.80;51.90;;;;;;5055301;28;20029;-81
2022/04/13 05:49:52;;;;;;;13.60;8.43;;;13.10;51.60;;;;;;5054236;28;20021;-79
2022/04/13 05:52:18;;;;;;;14.82;7.70;;;13.10;51.20;;;;;;5054052;28;20487;-80
2022/04/13 05:54:44;;;;;;;10.88;7.63;;;13.20;51.20;;;;;;5052677;28;20403;-80
2022/04/13 05:57:09;;;;;;;19.20;8.07;;;13.30;51.00;;;;;;5053795;28;20112;-79
2022/04/13 05:59:35;;;;;;;15.10;8.00;;;13.50;50.90;;;;;;5053381;28;20055;-80
2022/04/13 06:02:02;;;;;;;13.32;8.68;;;13.80;50.90;;;;;;5053131;28;20024;-79
2022/04/13 06:04:28;;;;;;;14.02;8.82;;;13.60;51.10;;;;;;5054462;28;20424;-78
2022/04/13 06:06:56;;;;;;;14.00;8.77;;;13.70;51.20;;;;;;5053228;28;20025;-79
2022/04/13 06:09:22;;;;;;;12.65;8.50;;;14.10;51.20;;;;;;5053405;28;20489;-79
2022/04/13 06:11:51;;;;;;;12.75;8.63;;;14.40;50.80;;;;;;5055090;28;20468;-80
2022/04/13 06:14:17;;;;;;;12.38;8.18;;;14.50;51.30;;;;;;5054889;28;20037;-80
2022/04/13 06:16:43;;;;;;;13.85;8.32;;;14.80;50.40;;;;;;5053411;28;20059;-84
2022/04/13 06:19:09;;;;;;;13.30;7.70;;;15.00;49.40;;;;;;5053446;28;20035;-78
2022/04/13 06:21:35;;;;;;;12.20;7.88;;;15.10;46.90;;;;;;5054862;28;20017;-78
2022/04/13 06:24:01;;;;;;;16.80;7.68;;;14.40;47.00;;;;;;5055495;28;20036;-79
2022/04/13 06:26:26;;;;;;;14.05;7.20;;;14.50;47.70;;;;;;5054679;28;20380;-80
2022/04/13 06:28:52;;;;;;;14.80;7.80;;;14.80;46.00;;;;;;5053271;28;20021;-80
2022/04/13 06:31:19;;;;;;;15.07;7.78;;;14.70;44.80;;;;;;5055253;28;20037;-80
2022/04/13 06:33:45;;;;;;;11.43;7.03;;;14.60;45.50;;;;;;5074367;28;20487;-83
2022/04/13 06:36:11;;;;;;;10.88;6.93;;;14.50;44.50;;;;;;5056567;28;20028;-83
2022/04/13 06:38:40;;;;;;;12.65;6.88;;;14.10;44.10;;;;;;5074431;28;20029;-82
2022/04/13 06:41:07;;;;;;;13.25;6.68;;;14.10;44.60;;;;;;5074595;28;20024;-79
2022/04/13 06:43:33;;;;;;;17.45;7.45;;;14.50;45.20;;;;;;5074366;28;20025;-85
2022/04/13 06:45:58;;;;;;;11.77;6.80;;;14.30;44.70;;;;;;5074175;28;20039;-83
2022/04/13 06:48:24;;;;;;;10.57;7.13;;;14.10;43.80;;;;;;5074432;28;20379;-83
2022/04/13 06:50:50;;;;;;;11.15;6.93;;;14.00;44.50;;;;;;5056266;28;20119;-82
2022/04/13 06:53:17;;;;;;;12.35;7.68;;;14.10;44.60;;;;;;5074092;28;20040;-84
2022/04/13 06:55:44;;;;;;;11.52;7.15;;;14.10;44.00;;;;;;5056322;28;20032;-80
2022/04/13 06:58:09;;;;;;;10.10;7.00;;;14.20;43.80;;;;;;5056466;28;20032;-79
2022/04/13 07:00:35;;;;;;;12.07;7.15;;;14.20;43.70;;;;;;5056541;28;20020;-82
2022/04/13 07:03:01;;;;;;;13.10;8.15;;;14.80;44.00;;;;;;5056169;28;20505;-84
2022/04/13 07:05:28;;;;;;;10.98;7.20;;;16.20;43.20;;;;;;5056199;28;20027;-84
2022/04/13 07:07:57;;;;;;;12.77;7.70;;;17.60;41.00;;;;;;5074151;28;20022;-85
2022/04/13 07:10:23;;;;;;;10.88;7.53;;;18.80;40.00;;;;;;5073702;28;20024;-80
2022/04/13 07:12:49;;;;;;;12.90;8.15;;;19.80;39.50;;;;;;5073972;28;20104;-85
2022/04/13 07:15:17;;;;;;;10.82;7.30;;;20.40;38.40;;;;;;5055784;28;20081;-86
2022/04/13 07:17:44;;;;;;;11.50;7.60;;;20.40;38.60;;;;;;5055882;28;20024;-81
2022/04/13 07:20:11;;;;;;;11.63;7.78;;;20.80;38.60;;;;;;5056107;28;20105;-83
2022/04/13 07:22:45;;;;;;;9.88;7.32;;;20.70;37.90;;;;;;5055792;28;20020;-84
2022/04/13 07:25:12;;;;;;;11.60;8.00;;;19.90;38.60;;;;;;5073428;28;20081;-83
2022/04/13 07:27:38;;;;;;;12.15;7.88;;;19.90;38.60;;;;;;5073227;28;20133;-81
2022/04/13 07:30:04;;;;;;;21.70;8.63;;;20.30;39.20;;;;;;5074072;28;20089;-85
2022/04/13 07:32:29;;;;;;;11.23;7.68;;;20.90;37.80;;;;;;5072298;28;20439;-85
2022/04/13 07:34:59;;;;;;;9.85;7.72;;;21.00;38.20;;;;;;5073311;28;20058;-82
2022/04/13 07:37:25;;;;;;;14.32;8.60;;;21.20;37.70;;;;;;5055614;28;20391;-84
2022/04/13 07:39:52;;;;;;;12.80;8.20;;;21.60;37.70;;;;;;5073347;28;20100;-82
2022/04/13 07:42:21;;;;;;;11.60;7.72;;;21.70;37.50;;;;;;5073417;28;20027;-82
2022/04/13 07:44:47;;;;;;;12.35;8.27;;;21.60;37.80;;;;;;5055760;28;20364;-82
2022/04/13 07:47:14;;;;;;;11.50;8.10;;;21.10;37.40;;;;;;5055184;28;20536;-81
2022/04/13 07:49:41;;;;;;;9.98;7.55;;;21.20;38.60;;;;;;5055604;28;20483;-82
2022/04/13 07:52:07;;;;;;;12.95;8.48;;;21.70;38.10;;;;;;5073353;28;20377;-82
2022/04/13 07:54:33;;;;;;;11.15;8.07;;;22.00;37.70;;;;;;5072815;28;20040;-84
2022/04/13 07:56:59;;;;;;;12.05;7.60;;;22.70;36.90;;;;;;5073135;28;20029;-83
2022/04/13 07:59:25;;;;;;;13.43;7.95;;;22.20;36.90;;;;;;5073290;28;20423;-83
2022/04/13 08:01:51;;;;;;;12.25;7.70;;;21.80;38.10;;;;;;5055061;28;20032;-83
2022/04/13 08:04:16;;;;;;;13.27;7.97;;;21.40;38.50;;;;;;5053978;28;20032;-82
2022/04/13 08:06:42;;;;;;;16.52;8.13;;;20.70;38.40;;;;;;5054932;28;20027;-79
2022/04/13 08:09:08;;;;;;;10.32;7.55;;;21.20;38.90;;;;;;5055088;28;20025;-80
2022/04/13 08:11:33;;;;;;;10.07;6.90;;;22.90;37.00;;;;;;5073107;28;20056;-82
2022/04/13 08:13:59;;;;;;;11.05;6.78;;;24.50;36.70;;;;;;5055024;28;20045;-85
2022/04/13 08:16:25;;;;;;;10.55;6.40;;;24.70;33.80;;;;;;5073003;28;20095;-81
2022/04/13 08:18:51;;;;;;;10.88;6.70;;;24.40;33.90;;;;;;5073041;28;20024;-82
2022/04/13 08:21:16;;;;;;;10.65;7.20;;;24.20;35.70;;;;;;5073032;28;20035;-81
2022/04/13 08:23:45;;;;;;;10.73;6.25;;;24.30;34.20;;;;;;5073254;28;20075;-84
2022/04/13 08:26:10;;;;;;;10.38;5.85;;;24.00;34.80;;;;;;5055075;28;20083;-81
2022/04/13 08:28:36;;;;;;;10.00;5.82;;;24.80;34.80;;;;;;5055043;28;20486;-81
2022/04/13 08:31:04;;;;;;;8.68;5.10;;;25.40;33.10;;;;;;5072360;28;20031;-81
2022/04/13 08:33:30;;;;;;;10.00;6.03;;;25.30;33.30;;;;;;5054528;28;20496;-81
2022/04/13 08:35:56;;;;;;;9.50;5.60;;;24.50;33.10;;;;;;5073065;28;20070;-79
2022/04/13 08:38:22;;;;;;;10.85;5.90;;;23.90;33.50;;;;;;5073030;28;20032;-81
2022/04/13 08:41:00;;;;;;;8.43;5.50;;;24.40;33.80;;;;;;5054676;28;20108;-81
2022/04/13 08:43:44;;;;;;;10.60;5.38;;;23.70;34.60;;;;;;5054832;28;20095;-80
2022/04/13 08:46:21;;;;;;;8.23;5.35;;;23.60;34.30;;;;;;5072511;28;20027;-82
2022/04/13 08:48:50;;;;;;;11.45;5.97;;;23.70;34.40;;;;;;5055719;28;20037;-80
2022/04/13 08:51:18;;;;;;;11.82;5.97;;;24.40;33.70;;;;;;5072350;28;20090;-80
2022/04/13 08:53:48;;;;;;;9.55;5.80;;;24.20;33.80;;;;;;5072506;28;20114;-81
2022/04/13 08:56:18;;;;;;;7.88;5.30;;;24.00;33.70;;;;;;5072492;28;20025;-80
2022/04/13 08:59:01;;;;;;;8.18;4.97;;;23.70;33.50;;;;;;5054654;28;20036;-80
2022/04/13 09:01:38;;;;;;;11.48;5.70;;;24.40;36.80;;;;;;5072691;28;20032;-83
2022/04/13 09:04:10;;;;;;;9.70;5.90;;;24.50;33.30;;;;;;5072465;28;20074;-81
2022/04/13 09:06:38;;;;;;;7.93;5.28;;;23.40;33.40;;;;;;5054422;28;20488;-80
2022/04/13 09:09:13;;;;;;;12.57;5.95;;;23.50;34.40;;;;;;5054260;28;20028;-81
2022/04/13 09:11:42;;;;;;;9.35;5.80;;;24.50;35.20;;;;;;5072546;28;20024;-83
2022/04/13 09:14:08;;;;;;;13.07;7.47;;;25.50;34.70;;;;;;5072450;28;20071;-84
2022/04/13 09:16:35;;;;;;;8.60;5.85;;;26.20;32.40;;;;;;5058168;28;20103;-80
2022/04/13 09:19:03;;;;;;;11.15;7.07;;;27.50;33.50;;;;;;5076222;28;20063;-82
2022/04/13 09:21:32;;;;;;;10.15;6.30;;;28.30;32.40;;;;;;5058298;28;20052;-81
2022/04/13 09:23:59;;;;;;;9.38;6.22;;;28.50;32.10;;;;;;5076056;28;20021;-82
2022/04/13 09:26:26;;;;;;;7.70;5.13;;;29.10;31.70;;;;;;5075843;28;20028;-80
2022/04/13 09:28:52;;;;;;;7.55;5.05;;;29.70;31.90;;;;;;5075630;28;20024;-81
2022/04/13 09:31:17;;;;;;;9.80;5.45;;;30.10;31.30;;;;;;5075412;28;20035;-80
2022/04/13 09:33:43;;;;;;;7.80;5.65;;;29.70;31.80;;;;;;5075426;28;20084;-85
2022/04/13 09:36:09;;;;;;;10.13;6.15;;;28.90;32.30;;;;;;5076527;28;20112;-85
2022/04/13 09:38:35;;;;;;;12.82;6.07;;;29.80;33.10;;;;;;5058494;28;20029;-86
2022/04/13 09:41:09;;;;;;;9.43;6.10;;;31.10;31.70;;;;;;5057849;28;20016;-80
2022/04/13 09:43:36;;;;;;;11.02;6.00;;;31.10;31.20;;;;;;5075236;28;20024;-80
2022/04/13 09:46:03;;;;;;;11.88;6.72;;;29.90;31.70;;;;;;5057368;28;20033;-79
2022/04/13 09:48:29;;;;;;;10.27;5.72;;;29.20;31.20;;;;;;5056872;28;20063;-79
2022/04/13 09:50:57;;;;;;;8.88;5.72;;;29.20;33.00;;;;;;5057587;28;20035;-80
2022/04/13 09:53:23;;;;;;;11.05;5.63;;;29.80;31.90;;;;;;5057176;28;20467;-82
2022/04/13 09:55:55;;;;;;;7.95;5.25;;;29.80;30.60;;;;;;5056909;28;20035;-81
2022/04/13 09:58:22;;;;;;;9.20;5.85;;;29.90;31.10;;;;;;5057137;28;20391;-79
2022/04/13 10:00:50;;;;;;;11.55;5.88;;;29.60;31.50;;;;;;5074793;28;20032;-80
2022/04/13 10:03:17;;;;;;;11.90;5.60;;;30.00;32.30;;;;;;5075105;28;20016;-82
2022/04/13 10:05:51;;;;;;;8.63;6.00;;;31.50;31.20;;;;;;5074950;28;20374;-83
2022/04/13 10:08:25;;;;;;;9.27;6.35;;;31.10;30.80;;;;;;5074929;28;20020;-81
2022/04/13 10:10:52;;;;;;;9.93;6.25;;;31.70;30.70;;;;;;5057125;28;20034;-81
2022/04/13 10:13:46;;;;;;;11.80;6.22;;;29.90;31.80;;;;;;5056808;28;20391;-80
2022/04/13 10:16:14;;;;;;;9.05;5.70;;;29.30;31.60;;;;;;5074882;28;20387;-80
2022/04/13 10:19:03;;;;;;;8.40;5.88;;;30.70;31.90;;;;;;5056575;28;20032;-80
2022/04/13 10:21:40;;;;;;;10.52;5.85;;;31.30;30.20;;;;;;5056991;28;20032;-81
2022/04/13 10:24:18;;;;;;;8.80;5.93;;;30.50;31.70;;;;;;5057016;28;20111;-81
2022/04/13 10:27:03;;;;;;;13.57;6.18;;;30.90;31.10;;;;;;5056080;28;20051;-81
2022/04/13 10:29:30;;;;;;;9.75;6.43;;;32.10;31.00;;;;;;5056376;28;20439;-79
2022/04/13 10:32:11;;;;;;;7.85;5.50;;;32.70;30.70;;;;;;5056367;28;20104;-79
2022/04/13 10:34:39;;;;;;;10.68;6.75;;;33.30;31.00;;;;;;5073891;28;20419;-80
2022/04/13 10:37:06;;;;;;;12.75;6.32;;;32.50;31.60;;;;;;5074518;28;20036;-80
2022/04/13 10:39:33;;;;;;;9.00;6.28;;;31.80;31.00;;;;;;5074445;28;20435;-81
2022/04/13 10:42:01;;;;;;;12.02;6.32;;;31.00;30.50;;;;;;5074025;28;20103;-79
2022/04/13 10:44:34;;;;;;;10.77;5.80;;;29.80;30.80;;;;;;5056611;28;20469;-80
2022/04/13 10:47:05;;;;;;;8.98;6.15;;;29.50;31.60;;;;;;5056109;28;20048;-82
2022/04/13 10:49:58;;;;;;;9.48;6.00;;;28.80;32.60;;;;;;5056048;28;20482;-81
2022/04/13 10:52:40;;;;;;;8.85;5.93;;;28.80;32.20;;;;;;5056468;28;20458;-81
2022/04/13 10:55:12;;;;;;;11.18;6.25;;;29.80;31.30;;;;;;5074656;28;20075;-84
2022/04/13 10:57:46;;;;;;;10.38;5.88;;;30.20;31.40;;;;;;5075187;28;20123;-82
2022/04/13 11:00:16;;;;;;;8.88;5.68;;;29.60;31.80;;;;;;5056475;28;20025;-81
2022/04/13 11:02:57;;;;;;;9.32;5.90;;;28.80;31.90;;;;;;5055373;28;20027;-80
2022/04/13 11:05:25;;;;;;;9.65;6.30;;;27.00;33.20;;;;;;5073721;28;20025;-80
2022/04/13 11:08:26;;;;;;;11.18;5.93;;;24.80;32.90;;;;;;5055947;28;20024;-80
2022/04/13 11:10:53;;;;;;;11.35;5.60;;;23.70;33.30;;;;;;5073688;28;20021;-78
2022/04/13 11:13:20;;;;;;;9.80;6.05;;;23.00;34.30;;;;;;5074042;28;20025;-80
2022/04/13 11:15:50;;;;;;;12.65;6.07;;;23.30;35.20;;;;;;5073383;28;20043;-79
2022/04/13 11:18:18;;;;;;;11.40;6.03;;;23.60;33.80;;;;;;5073469;28;20465;-78
2022/04/13 11:21:04;;;;;;;10.98;6.18;;;23.70;33.60;;;;;;5055924;28;20029;-80
2022/04/13 11:23:54;;;;;;;9.98;5.63;;;22.90;35.10;;;;;;5073377;28;20020;-80
2022/04/13 11:26:35;;;;;;;12.43;6.35;;;23.00;35.00;;;;;;5073507;28;20048;-82
2022/04/13 11:29:17;;;;;;;13.32;6.35;;;22.20;34.20;;;;;;5055640;28;20043;-80
2022/04/13 11:32:02;;;;;;;8.85;5.80;;;21.50;36.30;;;;;;5073059;28;20079;-80
2022/04/13 11:34:39;;;;;;;13.23;6.57;;;22.10;35.50;;;;;;5073449;28;20033;-80
2022/04/13 11:37:10;;;;;;;12.60;7.10;;;22.00;35.80;;;;;;5055328;28;20111;-83
2022/04/13 11:39:49;;;;;;;11.50;6.93;;;22.10;35.10;;;;;;5055768;28;20484;-80
2022/04/13 11:42:21;;;;;;;9.40;6.03;;;21.80;34.60;;;;;;5055408;28;20365;-79
2022/04/13 11:45:00;;;;;;;9.35;6.32;;;21.30;36.20;;;;;;5055447;28;20036;-79
2022/04/13 11:47:58;;;;;;;11.63;6.85;;;22.10;36.00;;;;;;5055293;28;20025;-80
2022/04/13 11:50:26;;;;;;;10.10;6.28;;;22.70;34.80;;;;;;5073000;28;20025;-80
2022/04/13 11:52:54;;;;;;;12.88;7.60;;;22.80;35.70;;;;;;5055018;28;20521;-80
2022/04/13 11:55:42;;;;;;;9.75;6.85;;;22.50;35.80;;;;;;5055226;28;20051;-84
2022/04/13 11:58:07;;;;;;;11.68;6.85;;;22.70;34.70;;;;;;5055216;28;20379;-81
2022/04/13 12:00:37;;;;;;;11.73;6.28;;;22.70;35.40;;;;;;5055143;28;20024;-80
2022/04/13 12:03:09;;;;;;;10.60;6.45;;;22.50;35.40;;;;;;5054713;28;20050;-87
2022/04/13 12:05:40;;;;;;;11.02;6.72;;;22.40;35.40;;;;;;5054917;28;20021;-80
2022/04/13 12:08:12;;;;;;;11.35;6.95;;;22.00;35.60;;;;;;5058666;28;20475;-82
2022/04/13 12:10:38;;;;;;;10.98;7.00;;;21.80;35.80;;;;;;5076061;28;20020;-81
2022/04/13 12:13:10;;;;;;;11.13;6.65;;;22.30;36.20;;;;;;5059905;28;20029;-83
2022/04/13 12:15:53;;;;;;;11.43;7.22;;;22.50;36.00;;;;;;5074663;28;20035;-82
2022/04/13 12:18:21;;;;;;;12.13;6.60;;;22.90;35.10;;;;;;5058353;28;20075;-84
2022/04/13 12:20:47;;;;;;;13.75;7.47;;;22.60;35.50;;;;;;5055917;28;20082;-80
2022/04/13 12:23:27;;;;;;;11.77;6.82;;;21.90;35.60;;;;;;5054624;28;20040;-83
2022/04/13 12:25:57;;;;;;;10.40;6.90;;;22.00;34.20;;;;;;5054805;28;20021;-79
2022/04/13 12:28:24;;;;;;;10.18;6.93;;;22.00;35.50;;;;;;5072471;28;20119;-81
2022/04/13 12:31:01;;;;;;;11.70;6.55;;;22.60;35.40;;;;;;5054099;28;20064;-82
2022/04/13 12:33:28;;;;;;;11.35;7.38;;;23.20;34.90;;;;;;5054283;28;20131;-79
2022/04/13 12:36:00;;;;;;;11.48;6.90;;;23.40;34.60;;;;;;5054650;28;20100;-80
2022/04/13 12:38:36;;;;;;;12.75;7.15;;;23.40;34.90;;;;;;5072430;28;20020;-80
2022/04/13 12:41:07;;;;;;;10.02;6.53;;;23.30;34.00;;;;;;5054283;28;20163;-82
2022/04/13 12:43:34;;;;;;;10.55;6.90;;;23.30;35.30;;;;;;5054552;28;20494;-80